Time;durP1;ratioP1;P1;durP2;ratioP2;P2;SDS_P1;SDS_P2;PMS_P1;PMS_P2;Temp;Humidity;BMP_temperature;BMP_pressure;BME280_temperature;BME280_humidity;BME280_pressure;Samples;Min_cycle;Max_cycle;Signal;HPM_P1;HPM_P2
2021/12/26 00:01:18;;;;;;;4.45;2.62;;;;;;;-5.89;89.50;99059.59;1806957;77;21419;-62
2021/12/26 00:03:45;;;;;;;7.75;2.87;;;;;;;-5.83;89.58;99064.72;1787566;77;20980;-61
2021/12/26 00:06:15;;;;;;;;;;;;;;;-5.78;89.56;99059.27;1738659;80;21033;-61
2021/12/26 00:08:44;;;;;;;5.17;2.62;;;;;;;-5.75;89.50;99063.09;1717688;80;20099;-61
2021/12/26 00:11:11;;;;;;;8.08;3.10;;;;;;;-5.74;89.41;99062.28;1724583;80;20906;-61
2021/12/26 00:13:39;;;;;;;7.25;3.30;;;;;;;-5.76;89.33;99051.66;1807394;77;20911;-61
2021/12/26 00:16:07;;;;;;;7.97;4.22;;;;;;;-5.76;89.31;99058.86;1806056;77;20949;-61
2021/12/26 00:18:35;;;;;;;11.43;5.03;;;;;;;-5.77;89.26;99062.26;1813873;77;21150;-61
2021/12/26 00:21:03;;;;;;;9.93;5.83;;;;;;;-5.80;89.16;99064.74;1812138;77;20895;-61
2021/12/26 00:23:31;;;;;;;7.83;3.72;;;;;;;-5.81;89.17;99064.33;1809683;77;20884;-61
2021/12/26 00:25:59;;;;;;;8.58;4.03;;;;;;;-5.86;89.12;99064.70;1807147;78;21520;-61
2021/12/26 00:28:26;;;;;;;10.03;6.58;;;;;;;-5.88;89.09;99063.83;1810405;77;21567;-61
2021/12/26 00:30:53;;;;;;;24.12;9.18;;;;;;;-5.93;89.12;99068.89;1818530;77;21111;-61
2021/12/26 00:33:20;;;;;;;10.13;4.03;;;;;;;-5.95;89.11;99063.40;1813524;77;21501;-62
2021/12/26 00:35:47;;;;;;;8.78;3.65;;;;;;;-5.96;89.20;99070.61;1809079;77;21443;-62
2021/12/26 00:38:15;;;;;;;8.48;3.45;;;;;;;-5.97;89.22;99054.90;1803036;77;20967;-61
2021/12/26 00:40:44;;;;;;;9.58;5.72;;;;;;;-5.99;89.24;99062.92;1786579;78;20887;-61
2021/12/26 00:43:11;;;;;;;;;;;;;;;-6.01;89.21;99060.39;1814687;77;21445;-60
2021/12/26 00:45:39;;;;;;;8.18;3.55;;;;;;;-6.02;89.23;99062.90;1809844;77;20578;-61
2021/12/26 00:48:07;;;;;;;10.38;4.12;;;;;;;-6.04;89.19;99064.59;1803827;77;21451;-61
2021/12/26 00:50:37;;;;;;;8.48;3.45;;;;;;;-6.10;89.14;99061.16;1792294;77;20996;-61
2021/12/26 00:53:04;;;;;;;9.50;3.37;;;;;;;-6.14;89.10;99055.60;1805458;77;21565;-61
2021/12/26 00:55:31;;;;;;;8.17;4.53;;;;;;;-6.23;88.97;99054.25;1803140;77;21893;-61
2021/12/26 00:57:58;;;;;;;;;;;;;;;-6.29;88.88;99053.36;1813073;77;20890;-61
2021/12/26 01:00:29;;;;;;;7.42;4.37;;;;;;;-6.36;88.87;99063.47;1801221;77;20134;-61
2021/12/26 01:03:00;;;;;;;10.35;5.08;;;;;;;-6.44;88.84;99064.20;1810841;77;20881;-61
2021/12/26 01:05:28;;;;;;;6.87;3.67;;;;;;;-6.51;88.85;99062.45;1811142;77;20964;-61
2021/12/26 01:08:00;;;;;;;10.90;4.40;;;;;;;-6.58;88.87;99064.92;1816246;77;21049;-61
2021/12/26 01:10:40;;;;;;;8.20;3.98;;;;;;;-6.61;88.93;99067.44;1811481;77;20892;-61
2021/12/26 01:13:26;;;;;;;10.85;5.55;;;;;;;-6.64;88.95;99072.45;1809107;77;21553;-61
2021/12/26 01:15:47;;;;;;;7.67;3.87;;;;;;;-6.69;88.90;99066.50;1809213;77;20963;-61
2021/12/26 01:18:16;;;;;;;6.35;3.60;;;;;;;-6.71;88.92;99073.66;1795992;77;21001;-61
2021/12/26 01:20:50;;;;;;;12.88;4.92;;;;;;;-6.73;88.96;99067.28;1791076;77;21056;-61
2021/12/26 01:23:15;;;;;;;9.13;4.30;;;;;;;-6.79;88.88;99069.75;1804886;77;20944;-61
2021/12/26 01:25:42;;;;;;;12.07;5.30;;;;;;;-6.84;88.88;99062.50;1795094;77;20902;-61
2021/12/26 01:28:09;;;;;;;9.13;4.55;;;;;;;-6.88;88.91;99061.62;1803458;77;20878;-61
2021/12/26 01:30:39;;;;;;;10.48;4.58;;;;;;;-6.91;88.90;99056.92;1803883;77;20905;-61
2021/12/26 01:33:13;;;;;;;16.05;5.60;;;;;;;-6.94;88.92;99064.51;1803892;77;49632;-61
2021/12/26 01:35:40;;;;;;;15.55;6.72;;;;;;;-6.96;89.00;99053.48;1805270;77;20985;-61
2021/12/26 01:38:13;;;;;;;12.25;6.15;;;;;;;-6.96;89.15;99061.94;1804232;77;20963;-61
2021/12/26 01:40:43;;;;;;;15.45;4.42;;;;;;;-6.95;89.18;99056.02;1788315;78;21042;-60
2021/12/26 01:43:10;;;;;;;10.82;4.70;;;;;;;-6.92;89.32;99057.74;1757672;78;20938;-61
2021/12/26 01:45:37;;;;;;;14.50;7.83;;;;;;;-6.88;89.38;99051.88;1781137;79;21082;-61
2021/12/26 01:48:06;;;;;;;14.07;7.00;;;;;;;-6.84;89.44;99053.61;1734175;80;20901;-61
2021/12/26 01:50:34;;;;;;;10.05;4.67;;;;;;;-6.80;89.50;99046.48;1753594;80;21587;-61
2021/12/26 01:53:01;;;;;;;9.70;4.70;;;;;;;-6.80;89.41;99060.44;1804971;78;20958;-61
2021/12/26 01:58:10;;;;;;;10.95;5.37;;;;;;;-6.73;89.56;99062.20;1790745;77;21077;-61
2021/12/26 02:00:39;;;;;;;11.22;6.20;;;;;;;-6.69;89.67;99063.95;1811814;77;21076;-61
2021/12/26 02:03:06;;;;;;;10.40;4.92;;;;;;;-6.65;89.70;99068.22;1808798;77;21831;-61
2021/12/26 02:05:33;;;;;;;17.90;6.08;;;;;;;-6.58;89.79;99064.92;1798782;77;21619;-61
2021/12/26 02:08:00;;;;;;;10.35;4.85;;;;;;;-6.49;89.96;99065.86;1814274;77;20976;-61
2021/12/26 02:10:28;;;;;;;11.63;5.30;;;;;;;-6.39;90.11;99072.72;1798417;77;21469;-61
2021/12/26 02:12:55;;;;;;;13.00;5.37;;;;;;;-6.28;90.21;99066.06;1801814;77;20942;-61
2021/12/26 02:15:22;;;;;;;10.40;4.50;;;;;;;-6.18;90.27;99065.32;1812138;77;20894;-61
2021/12/26 02:17:50;;;;;;;11.10;4.45;;;;;;;-6.09;90.25;99066.66;1789114;78;20938;-61
2021/12/26 02:20:29;;;;;;;8.83;5.00;;;;;;;-6.02;90.19;99062.90;1788283;78;20939;-61
2021/12/26 02:22:59;;;;;;;13.05;6.37;;;;;;;-6.00;90.10;99061.23;1769955;78;21923;-61
2021/12/26 02:25:31;;;;;;;8.80;4.58;;;;;;;-5.99;89.95;99062.92;1791646;77;20883;-61
2021/12/26 02:27:54;;;;;;;9.13;4.90;;;;;;;-6.02;89.87;99055.27;1781454;77;20836;-60
2021/12/26 02:30:22;;;;;;;10.40;4.50;;;;;;;-6.05;89.83;99055.25;1795284;77;20962;-61
2021/12/26 02:32:50;;;;;;;10.30;4.72;;;;;;;-6.05;89.90;99055.25;1781581;78;21068;-62
2021/12/26 02:35:21;;;;;;;8.60;4.30;;;;;;;-6.04;89.97;99054.44;1805285;77;21725;-61
2021/12/26 02:37:48;;;;;;;10.63;5.17;;;;;;;-6.04;90.00;99054.44;1768844;79;20941;-61
2021/12/26 02:40:16;;;;;;;8.60;3.98;;;;;;;-6.05;90.02;99045.09;1756825;80;20937;-61
2021/12/26 02:42:45;;;;;;;10.48;4.75;;;;;;;-6.03;90.08;99043.42;1755698;77;20860;-61
2021/12/26 02:45:13;;;;;;;9.43;4.62;;;;;;;-6.03;90.17;99051.04;1816746;77;21582;-61
2021/12/26 02:47:47;;;;;;;8.75;3.42;;;;;;;-6.01;90.10;99051.91;1813570;77;21120;-61
2021/12/26 02:50:24;;;;;;;6.37;3.70;;;;;;;-6.01;90.08;99060.81;1808018;77;21054;-61
2021/12/26 02:52:53;;;;;;;8.68;4.03;;;;;;;-5.99;90.22;99060.38;1764420;79;21476;-61
2021/12/26 02:55:23;;;;;;;6.78;3.90;;;;;;;-5.98;90.20;99062.10;1758636;79;20915;-61
2021/12/26 02:57:55;;;;;;;6.55;3.60;;;;;;;-5.97;90.20;99063.80;1767953;79;21579;-61
2021/12/26 03:00:26;;;;;;;10.28;3.50;;;;;;;-5.96;90.20;99076.53;1798767;78;21211;-61
2021/12/26 03:02:57;;;;;;;6.47;3.62;;;;;;;-5.95;90.19;99074.84;1819081;77;20947;-61
2021/12/26 03:05:30;;;;;;;8.48;4.92;;;;;;;-5.92;90.25;99077.38;1806128;77;20944;-61
2021/12/26 03:07:58;;;;;;;7.35;3.37;;;;;;;-5.89;90.31;99078.23;1799440;77;21063;-61
2021/12/26 03:10:26;;;;;;;7.20;3.10;;;;;;;-5.82;90.42;99079.16;1783401;78;20942;-61
2021/12/26 03:12:57;;;;;;;8.58;3.72;;;;;;;-5.76;90.46;99080.48;1811529;77;21191;-61
2021/12/26 03:15:27;;;;;;;8.23;3.72;;;;;;;-5.68;90.47;99085.20;1785888;78;20887;-61
2021/12/26 03:17:56;;;;;;;6.87;3.30;;;;;;;-5.59;90.49;99078.48;1800643;77;20859;-61
2021/12/26 03:20:28;;;;;;;6.70;3.05;;;;;;;-5.53;90.40;99086.16;1745726;79;20921;-61
2021/12/26 03:22:55;;;;;;;5.20;2.62;;;;;;;-5.52;90.30;99078.52;1811000;77;20986;-62
2021/12/26 03:25:23;;;;;;;7.25;3.22;;;;;;;-5.49;90.25;99081.50;1806054;77;21881;-62
2021/12/26 03:27:51;;;;;;;9.33;3.60;;;;;;;-5.50;90.07;99081.08;1815433;77;20929;-61
2021/12/26 03:30:25;;;;;;;7.08;3.47;;;;;;;-5.51;90.06;99089.56;1802407;77;20915;-61
2021/12/26 03:32:52;;;;;;;7.72;3.45;;;;;;;-5.58;89.82;99087.38;1797704;77;20930;-61
2021/12/26 03:35:23;;;;;;;8.40;3.00;;;;;;;-5.65;89.77;99092.85;1804171;77;21160;-61
2021/12/26 03:37:50;;;;;;;7.58;3.02;;;;;;;-5.75;89.69;99091.06;1807841;77;21024;-61
2021/12/26 03:40:17;;;;;;;7.53;4.12;;;;;;;-5.80;89.72;99088.91;1807699;77;20823;-62
2021/12/26 03:42:44;;;;;;;5.65;3.98;;;;;;;-5.83;89.81;99090.16;1797607;77;20899;-61
2021/12/26 03:45:11;;;;;;;8.10;2.80;;;;;;;-5.87;89.85;99085.89;1773953;78;21551;-61
2021/12/26 03:47:39;;;;;;;5.80;3.37;;;;;;;-5.93;89.83;99090.97;1818587;77;21083;-61
2021/12/26 03:50:09;;;;;;;7.08;3.37;;;;;;;-5.98;89.84;99083.71;1808972;77;21067;-61
2021/12/26 03:52:36;;;;;;;9.20;3.20;;;;;;;-6.03;89.84;99080.27;1807216;77;21076;-61
2021/12/26 03:55:04;;;;;;;4.60;3.15;;;;;;;-6.10;89.83;99078.95;1794076;77;20990;-61
2021/12/26 03:57:33;;;;;;;6.67;3.30;;;;;;;-6.12;89.91;99085.70;1820397;77;20971;-61
2021/12/26 04:00:00;;;;;;;11.48;3.65;;;;;;;-6.15;89.97;99082.28;1808757;77;20971;-61
2021/12/26 04:02:27;;;;;;;4.25;2.75;;;;;;;-6.16;90.03;99086.52;1808549;77;21063;-61
2021/12/26 04:04:53;;;;;;;9.48;3.10;;;;;;;-6.19;90.01;99085.23;1818133;77;20880;-61
2021/12/26 04:07:20;;;;;;;6.25;2.98;;;;;;;-6.20;90.04;99086.47;1807241;77;21010;-61
2021/12/26 04:09:47;;;;;;;8.43;3.42;;;;;;;-6.21;90.05;99088.16;1808450;77;20906;-62
2021/12/26 04:12:15;;;;;;;6.65;3.83;;;;;;;-6.21;90.09;99097.06;1789297;77;20971;-62
2021/12/26 04:14:42;;;;;;;11.05;4.60;;;;;;;-6.22;90.06;99093.22;1753730;79;21501;-61
2021/12/26 04:17:09;;;;;;;11.40;3.87;;;;;;;-6.24;90.02;99088.14;1746595;80;20975;-61
2021/12/26 04:19:38;;;;;;;4.75;3.15;;;;;;;-6.25;90.06;99088.95;1728989;80;20981;-61
2021/12/26 04:22:04;;;;;;;5.92;3.12;;;;;;;-6.27;89.99;99088.11;1732611;80;20983;-61
2021/12/26 04:24:31;;;;;;;6.45;3.50;;;;;;;-6.29;90.00;99089.77;1750811;80;21436;-61
2021/12/26 04:26:58;;;;;;;4.78;2.95;;;;;;;-6.32;89.96;99091.02;1749324;80;21081;-62
2021/12/26 04:29:25;;;;;;;7.40;3.37;;;;;;;-6.34;89.94;99088.87;1742673;80;20907;-62
2021/12/26 04:31:52;;;;;;;5.03;3.00;;;;;;;-6.36;89.95;99090.53;1731980;80;20938;-61
2021/12/26 04:34:19;;;;;;;6.30;3.40;;;;;;;-6.40;89.92;99102.36;1691055;80;21565;-61
2021/12/26 04:36:47;;;;;;;8.63;3.20;;;;;;;-6.41;90.04;99099.78;1749171;80;20986;-61
2021/12/26 04:39:13;;;;;;;;;;;;;;;-6.40;90.13;99106.59;1738865;80;21226;-60
2021/12/26 04:41:40;;;;;;;6.47;3.70;;;;;;;-6.40;90.14;99115.06;1745997;80;20117;-61
2021/12/26 04:44:07;;;;;;;11.78;3.25;;;;;;;-6.39;90.22;99117.17;1734961;80;20880;-61
2021/12/26 04:46:34;;;;;;;8.00;4.00;;;;;;;-6.39;90.21;99129.88;1723971;80;21101;-61
2021/12/26 04:49:01;;;;;;;5.60;3.47;;;;;;;-6.40;90.16;99124.37;1716822;80;21589;-61
2021/12/26 04:51:28;;;;;;;6.35;3.15;;;;;;;-6.40;90.18;99123.10;1743641;80;21072;-62
2021/12/26 04:53:55;;;;;;;9.70;4.08;;;;;;;-6.41;90.15;99115.03;1745064;80;20986;-61
2021/12/26 04:56:23;;;;;;;6.47;3.45;;;;;;;-6.42;90.21;99108.25;1735180;80;20978;-61
2021/12/26 04:58:50;;;;;;;13.53;3.42;;;;;;;-6.40;90.24;99116.75;1739319;80;21873;-61
2021/12/26 05:01:17;;;;;;;8.05;3.42;;;;;;;-6.40;90.27;99109.13;1712132;81;21510;-61
2021/12/26 05:03:44;;;;;;;9.55;2.90;;;;;;;-6.39;90.21;99105.75;1778019;77;23036;-61
2021/12/26 05:06:12;;;;;;;9.48;3.12;;;;;;;-6.40;90.20;99101.52;1816897;77;21463;-61
2021/12/26 05:08:39;;;;;;;7.30;3.10;;;;;;;-6.42;90.17;99090.47;1803103;77;20911;-61
2021/12/26 05:11:06;;;;;;;9.75;3.02;;;;;;;-6.40;90.24;99092.20;1789415;78;20919;-61
2021/12/26 05:13:33;;;;;;;;;;;;;;;-6.38;90.24;99092.23;1793268;77;21108;-61
2021/12/26 05:16:00;;;;;;;7.17;3.30;;;;;;;-6.39;90.17;99099.39;1810364;77;21175;-61
2021/12/26 05:18:27;;;;;;;8.80;3.50;;;;;;;-6.42;90.14;99093.86;1783879;78;20918;-62
2021/12/26 05:20:56;;;;;;;6.47;4.53;;;;;;;-6.43;90.19;99095.98;1809853;77;20902;-61
2021/12/26 05:23:23;;;;;;;6.50;3.15;;;;;;;-6.44;90.15;99100.63;1804285;77;21383;-61
2021/12/26 05:25:50;;;;;;;5.67;3.30;;;;;;;-6.42;90.21;99100.63;1810938;77;20916;-61
2021/12/26 05:28:17;;;;;;;5.97;3.30;;;;;;;-6.41;90.28;99104.87;1816747;77;21080;-61
2021/12/26 05:30:44;;;;;;;6.75;3.10;;;;;;;-6.39;90.33;99105.75;1786597;78;21613;-61
2021/12/26 05:33:11;;;;;;;7.67;3.20;;;;;;;-6.37;90.36;99109.16;1809347;77;20918;-61
2021/12/26 05:35:38;;;;;;;6.75;2.77;;;;;;;-6.36;90.32;99105.77;1806721;77;20924;-61
2021/12/26 05:38:05;;;;;;;8.55;3.37;;;;;;;-6.35;90.31;99110.04;1810795;77;20970;-61
2021/12/26 05:40:31;;;;;;;8.60;3.42;;;;;;;-6.35;90.29;99112.58;1803091;78;21230;-61
2021/12/26 05:42:58;;;;;;;8.70;3.22;;;;;;;-6.36;90.27;99104.50;1812785;77;20908;-61
2021/12/26 05:45:25;;;;;;;10.43;4.30;;;;;;;-6.35;90.28;99113.84;1808533;77;20960;-62
2021/12/26 05:47:52;;;;;;;13.70;6.58;;;;;;;-6.35;90.28;99115.12;1806035;77;20923;-61
2021/12/26 05:50:21;;;;;;;9.97;3.90;;;;;;;-6.36;90.26;99115.94;1815625;77;20956;-61
2021/12/26 05:52:48;;;;;;;7.92;3.67;;;;;;;-6.37;90.24;99116.78;1798842;77;21142;-61
2021/12/26 05:55:16;;;;;;;9.00;4.45;;;;;;;-6.39;90.19;99120.98;1805801;77;20906;-61
2021/12/26 05:57:42;;;;;;;11.53;6.70;;;;;;;-6.41;90.14;99130.27;1738224;80;28165;-61
2021/12/26 06:00:14;;;;;;;12.25;5.25;;;;;;;-6.45;90.11;99136.16;1751336;80;21594;-61
2021/12/26 06:02:41;;;;;;;11.55;5.08;;;;;;;-6.49;90.12;99124.28;1804188;77;21021;-61
2021/12/26 06:05:09;;;;;;;17.30;8.63;;;;;;;-6.50;90.13;99127.63;1820254;77;22585;-61
2021/12/26 06:07:36;;;;;;;;;;;;;;;-6.51;90.13;99136.09;1794203;77;20939;-61
2021/12/26 06:10:05;;;;;;;;;;;;;;;-6.54;90.11;99135.22;1805179;77;20094;-61
2021/12/26 06:12:44;;;;;;;9.00;4.22;;;;;;;-6.57;90.15;99130.11;1785262;77;20416;-61
2021/12/26 06:15:10;;;;;;;13.45;5.60;;;;;;;-6.59;90.18;99139.38;1795775;77;21523;-61
2021/12/26 06:17:37;;;;;;;11.33;4.75;;;;;;;-6.61;90.18;99147.42;1811851;77;21057;-61
2021/12/26 06:20:06;;;;;;;13.03;5.75;;;;;;;-6.63;90.24;99156.70;1807796;77;20891;-61
2021/12/26 06:22:32;;;;;;;9.58;3.77;;;;;;;-6.64;90.25;99153.70;1810538;77;20920;-62
2021/12/26 06:25:01;;;;;;;9.33;4.63;;;;;;;-6.67;90.21;99163.83;1812522;77;21462;-61
2021/12/26 06:27:28;;;;;;;5.67;3.95;;;;;;;-6.68;90.20;99163.83;1808646;77;21232;-60
2021/12/26 06:29:55;;;;;;;8.83;5.15;;;;;;;-6.70;90.16;99173.95;1819180;77;21420;-61
2021/12/26 06:32:22;;;;;;;15.65;8.15;;;;;;;-6.72;90.19;99165.48;1793192;77;21428;-61
2021/12/26 06:34:49;;;;;;;11.97;6.62;;;;;;;-6.79;90.13;99161.14;1813894;77;21427;-61
2021/12/26 06:37:16;;;;;;;9.43;5.03;;;;;;;-6.87;89.92;99163.57;1815263;77;20884;-61
2021/12/26 06:39:42;;;;;;;8.97;5.33;;;;;;;-6.92;89.87;99171.95;1812081;77;20934;-61
2021/12/26 06:42:09;;;;;;;10.58;4.90;;;;;;;-6.90;90.07;99172.84;1816646;77;21045;-61
2021/12/26 06:44:36;;;;;;;13.03;6.30;;;;;;;-6.86;90.24;99177.11;1820536;77;20979;-61
2021/12/26 06:47:04;;;;;;;11.33;6.30;;;;;;;-6.83;90.33;99174.64;1812057;77;21497;-61
2021/12/26 06:49:32;;;;;;;9.95;5.20;;;;;;;-6.79;90.41;99171.30;1802416;77;20949;-61
2021/12/26 06:51:59;;;;;;;9.85;5.30;;;;;;;-6.69;90.58;99178.21;1812761;77;20919;-63
2021/12/26 06:54:26;;;;;;;9.25;5.58;;;;;;;-6.59;90.69;99180.02;1739373;79;21077;-61
2021/12/26 06:56:54;;;;;;;11.65;5.58;;;;;;;-6.50;90.80;99184.78;1749533;79;20909;-62
2021/12/26 06:59:22;;;;;;;8.45;5.00;;;;;;;-6.43;90.92;99191.66;1780698;78;21344;-62
2021/12/26 07:01:49;;;;;;;7.97;5.35;;;;;;;-6.33;91.01;99189.64;1777437;79;21420;-60
2021/12/26 07:04:15;;;;;;;10.00;5.85;;;;;;;-6.26;91.00;99196.52;1765837;79;20864;-61
2021/12/26 07:06:44;;;;;;;10.78;5.72;;;;;;;-6.18;91.06;99202.54;1764380;79;21251;-61
2021/12/26 07:09:11;;;;;;;8.40;5.40;;;;;;;-6.09;91.16;99202.64;1770688;79;20884;-61
2021/12/26 07:11:38;;;;;;;8.07;5.57;;;;;;;-5.99;91.21;99212.89;1796497;77;20932;-61
2021/12/26 07:14:05;;;;;;;11.40;6.70;;;;;;;-5.90;91.22;99205.36;1810728;77;20936;-62
2021/12/26 07:16:32;;;;;;;10.23;6.53;;;;;;;-5.84;91.24;99210.50;1814381;77;20932;-62
2021/12/26 07:18:58;;;;;;;13.55;7.12;;;;;;;-5.76;91.33;99215.25;1815394;77;21131;-62
2021/12/26 07:21:25;;;;;;;10.13;6.28;;;;;;;-5.68;91.41;99211.09;1818718;77;20879;-62
2021/12/26 07:23:53;;;;;;;9.80;6.03;;;;;;;-5.58;91.45;99209.90;1813755;77;20983;-62
2021/12/26 07:26:24;;;;;;;13.18;6.92;;;;;;;-5.51;91.45;99212.95;1804454;77;24379;-62
2021/12/26 07:28:52;;;;;;;10.30;6.80;;;;;;;-5.40;91.55;99227.89;1822054;77;21465;-61
2021/12/26 07:31:25;;;;;;;9.00;5.53;;;;;;;-5.31;91.57;99222.87;1814568;77;21012;-61
2021/12/26 07:33:53;;;;;;;13.48;6.60;;;;;;;-5.20;91.63;99223.81;1810784;77;21458;-61
2021/12/26 07:36:20;;;;;;;;;;;;;;;-5.12;91.59;99226.85;1801800;78;20965;-61
2021/12/26 07:38:46;;;;;;;10.63;6.57;;;;;;;-5.02;91.73;99238.36;1809456;77;20090;-61
2021/12/26 07:41:13;;;;;;;8.88;6.00;;;;;;;-4.95;91.63;99239.28;1815036;77;21414;-62
2021/12/26 07:43:40;;;;;;;10.03;7.03;;;;;;;-4.89;91.62;99234.22;1812652;77;21233;-62
2021/12/26 07:46:07;;;;;;;8.85;5.60;;;;;;;-4.80;91.75;99231.73;1818031;77;21183;-62
2021/12/26 07:48:33;;;;;;;10.35;6.55;;;;;;;-4.69;91.66;99215.67;1815958;77;21436;-62
2021/12/26 07:51:02;;;;;;;10.17;6.90;;;;;;;-4.66;91.53;99227.16;1814028;77;21016;-60
2021/12/26 07:53:29;;;;;;;9.95;5.78;;;;;;;-4.58;91.63;99226.78;1810524;77;20942;-60
2021/12/26 07:55:56;;;;;;;12.70;6.60;;;;;;;-4.49;91.62;99226.82;1799185;77;21085;-61
2021/12/26 07:58:22;;;;;;;13.95;7.00;;;;;;;-4.45;91.49;99233.66;1807654;77;20970;-60
2021/12/26 08:00:51;;;;;;;9.53;6.65;;;;;;;-4.37;91.61;99229.45;1809511;77;20942;-61
2021/12/26 08:03:18;;;;;;;10.43;6.45;;;;;;;-4.24;91.73;99232.05;1801861;77;20866;-61
2021/12/26 08:05:45;;;;;;;25.60;14.10;;;;;;;-4.20;91.57;99226.10;1794666;77;21424;-61
2021/12/26 08:08:12;;;;;;;25.85;13.83;;;;;;;-4.15;91.47;99230.38;1812535;77;21073;-61
2021/12/26 08:10:39;;;;;;;23.35;13.00;;;;;;;-4.08;91.34;99241.47;1819796;77;27809;-61
2021/12/26 08:13:06;;;;;;;16.15;9.45;;;;;;;-4.05;91.36;99241.48;1808624;77;21445;-60
2021/12/26 08:15:33;;;;;;;20.32;11.85;;;;;;;-4.01;91.33;99249.98;1810371;78;20916;-61
2021/12/26 08:18:00;;;;;;;27.82;13.75;;;;;;;-3.95;91.10;99250.88;1809981;77;21046;-61
2021/12/26 08:20:26;;;;;;;24.02;12.88;;;;;;;-3.87;91.20;99256.83;1806202;77;21941;-61
2021/12/26 08:22:54;;;;;;;24.27;10.20;;;;;;;-3.88;90.84;99253.86;1812777;77;20956;-61
2021/12/26 08:25:20;;;;;;;19.92;10.95;;;;;;;-3.86;90.92;99250.90;1812537;77;20890;-61
2021/12/26 08:27:47;;;;;;;18.80;9.07;;;;;;;-3.76;91.09;99250.91;1804408;77;20939;-61
2021/12/26 08:30:14;;;;;;;16.67;9.57;;;;;;;-3.69;90.93;99259.03;1807003;77;20893;-61
2021/12/26 08:32:42;;;;;;;12.13;6.62;;;;;;;-3.63;91.03;99260.31;1799807;78;21041;-61
2021/12/26 08:35:09;;;;;;;18.73;8.88;;;;;;;-3.55;91.06;99263.73;1807995;77;20977;-60
2021/12/26 08:37:38;;;;;;;15.58;9.05;;;;;;;-3.51;90.94;99260.33;1816493;77;20889;-61
2021/12/26 08:40:06;;;;;;;17.82;8.85;;;;;;;-3.43;91.11;99266.30;1816660;77;20910;-61
2021/12/26 08:42:35;;;;;;;16.62;8.08;;;;;;;-3.33;91.16;99271.41;1800869;77;21650;-61
2021/12/26 08:45:03;;;;;;;17.20;9.80;;;;;;;-3.30;91.08;99271.45;1806356;77;21101;-61
2021/12/26 08:47:30;;;;;;;16.55;8.43;;;;;;;-3.28;91.12;99279.94;1806251;77;20930;-61
2021/12/26 08:49:57;;;;;;;;;;;;;;;-3.26;91.09;99283.35;1815376;77;20915;-61
2021/12/26 08:52:25;;;;;;;14.68;7.42;;;;;;;-3.26;90.89;99279.09;1816426;77;20099;-61
2021/12/26 08:54:53;;;;;;;11.50;7.47;;;;;;;-3.19;90.99;99287.63;1810878;77;20951;-61
2021/12/26 08:57:19;;;;;;;13.00;8.53;;;;;;;-3.14;90.87;99291.02;1814331;77;21110;-62
2021/12/26 08:59:46;;;;;;;16.05;8.40;;;;;;;-3.06;91.15;99291.87;1810652;77;20863;-60
2021/12/26 09:02:14;;;;;;;16.23;8.95;;;;;;;-2.93;91.39;99292.32;1812539;77;21419;-63
2021/12/26 09:04:42;;;;;;;17.23;9.53;;;;;;;-2.79;91.49;99300.42;1800381;77;20850;-61
2021/12/26 09:07:10;;;;;;;15.70;8.90;;;;;;;-2.68;91.40;99301.27;1812326;77;21440;-63
2021/12/26 09:09:38;;;;;;;14.35;8.28;;;;;;;-2.64;91.17;99302.95;1810588;77;21875;-61
2021/12/26 09:12:07;;;;;;;;;;;;;;;-2.62;91.07;99299.98;1777952;77;20905;-61
2021/12/26 09:14:34;;;;;;;21.68;9.00;;;;;;;-2.56;91.12;99307.63;1805754;77;20430;-62
2021/12/26 09:17:02;;;;;;;15.55;10.32;;;;;;;-2.42;91.42;99306.77;1810204;77;20923;-61
2021/12/26 09:19:30;;;;;;;16.45;9.90;;;;;;;-2.30;91.42;99301.63;1803851;77;20829;-62
2021/12/26 09:22:00;;;;;;;14.80;8.55;;;;;;;-2.16;91.37;99306.71;1785507;78;21105;-61
2021/12/26 09:24:28;;;;;;;14.70;8.73;;;;;;;-2.16;90.95;99310.11;1811359;78;20975;-61
2021/12/26 09:26:55;;;;;;;14.20;9.33;;;;;;;-2.07;91.15;99305.43;1808920;77;21528;-61
2021/12/26 09:29:22;;;;;;;17.07;11.10;;;;;;;-1.98;91.25;99313.50;1798236;77;20859;-61
2021/12/26 09:31:50;;;;;;;19.27;10.65;;;;;;;-1.77;91.62;99315.97;1814634;77;20923;-61
2021/12/26 09:34:17;;;;;;;15.53;10.08;;;;;;;-1.62;91.54;99309.52;1807278;77;21914;-61
2021/12/26 09:36:44;;;;;;;16.53;9.97;;;;;;;-1.50;91.49;99311.16;1805055;77;20868;-61
2021/12/26 09:39:12;;;;;;;18.27;10.30;;;;;;;-1.49;91.19;99313.28;1808855;77;20895;-61
2021/12/26 09:41:39;;;;;;;15.13;10.72;;;;;;;-1.53;91.41;99312.89;1794546;77;20879;-61
2021/12/26 09:44:08;;;;;;;15.75;9.30;;;;;;;-1.44;91.59;99311.55;1790856;78;20897;-61
2021/12/26 09:46:36;;;;;;;12.47;7.75;;;;;;;-1.43;91.50;99312.84;1813584;77;21090;-61
2021/12/26 09:49:04;;;;;;;14.63;8.28;;;;;;;-1.35;91.44;99312.77;1820237;77;20947;-61
2021/12/26 09:51:31;;;;;;;18.40;10.05;;;;;;;-1.37;91.31;99311.95;1813349;77;20920;-61
2021/12/26 09:53:57;;;;;;;17.80;10.03;;;;;;;-1.33;91.34;99318.75;1785042;78;20906;-61
2021/12/26 09:56:26;;;;;;;13.32;9.30;;;;;;;-1.26;91.39;99311.47;1809025;77;20882;-62
2021/12/26 09:59:09;;;;;;;15.38;10.13;;;;;;;-1.25;91.31;99310.59;1800597;77;21103;-61
2021/12/26 10:01:40;;;;;;;15.38;10.43;;;;;;;-1.23;91.24;99308.88;1810395;77;20888;-61
2021/12/26 10:04:24;;;;;;;14.63;9.13;;;;;;;-1.15;91.38;99313.53;1792526;77;20879;-61
2021/12/26 10:07:05;;;;;;;19.62;10.60;;;;;;;-1.09;91.37;99314.33;1802314;77;21481;-61
2021/12/26 10:09:38;;;;;;;15.23;9.13;;;;;;;-1.09;91.09;99314.33;1798133;78;21583;-61
2021/12/26 10:12:06;;;;;;;15.88;9.68;;;;;;;-1.08;91.19;99314.77;1795161;78;21406;-61
2021/12/26 10:14:37;;;;;;;13.88;9.73;;;;;;;-1.02;91.36;99318.56;1802937;78;20916;-61
2021/12/26 10:17:11;;;;;;;19.23;9.93;;;;;;;-0.96;91.48;99322.36;1815850;77;20887;-62
2021/12/26 10:19:44;;;;;;;16.75;11.05;;;;;;;-0.89;91.50;99316.34;1810305;77;20942;-62
2021/12/26 10:22:15;;;;;;;16.82;11.15;;;;;;;-0.86;91.37;99313.75;1811659;77;20910;-62
2021/12/26 10:24:49;;;;;;;14.30;9.50;;;;;;;-0.80;91.42;99314.13;1806818;77;21050;-61
2021/12/26 10:27:26;;;;;;;21.73;10.32;;;;;;;-0.74;91.49;99314.92;1812902;77;21556;-61
2021/12/26 10:29:56;;;;;;;14.90;10.72;;;;;;;-0.58;91.56;99319.94;1813200;77;21404;-59
2021/12/26 10:32:31;;;;;;;14.33;9.88;;;;;;;-0.50;91.53;99315.59;1804355;77;20882;-60
2021/12/26 10:35:16;;;;;;;16.52;9.63;;;;;;;-0.39;91.53;99312.50;1808115;77;20917;-60
2021/12/26 10:37:47;;;;;;;11.78;8.68;;;;;;;-0.38;90.67;99310.34;1809502;77;21105;-61
2021/12/26 10:40:19;;;;;;;11.83;9.18;;;;;;;-0.42;90.60;99327.05;1817615;77;20932;-61
2021/12/26 10:42:51;;;;;;;13.72;9.43;;;;;;;-0.45;90.61;99326.64;1810816;77;20890;-61
2021/12/26 10:45:23;;;;;;;14.90;9.28;;;;;;;-0.47;90.60;99326.67;1808523;77;20915;-62
2021/12/26 10:47:56;;;;;;;16.17;9.38;;;;;;;-0.48;90.59;99326.27;1776452;77;20958;-62
2021/12/26 10:50:27;;;;;;;16.42;9.05;;;;;;;-0.44;90.61;99323.23;1810258;77;21842;-62
2021/12/26 10:53:07;;;;;;;14.65;9.08;;;;;;;-0.48;90.40;99321.53;1809770;77;21012;-62
2021/12/26 10:55:43;;;;;;;21.10;10.82;;;;;;;-0.53;90.28;99323.31;1806265;77;20969;-62
2021/12/26 10:58:17;;;;;;;18.32;10.82;;;;;;;-0.51;90.74;99322.41;1784254;78;21481;-62
2021/12/26 11:00:54;;;;;;;15.23;9.23;;;;;;;-0.47;90.56;99321.54;1800172;77;21119;-61
2021/12/26 11:03:26;;;;;;;18.98;10.25;;;;;;;-0.51;90.36;99330.55;1813305;77;21258;-61
2021/12/26 11:06:03;;;;;;;16.62;11.00;;;;;;;-0.54;90.43;99335.70;1784027;77;20918;-62
2021/12/26 11:08:36;;;;;;;16.67;9.05;;;;;;;-0.51;90.44;99329.27;1815336;77;26431;-62
2021/12/26 11:11:18;;;;;;;20.08;9.78;;;;;;;-0.44;90.52;99337.77;1812360;77;20878;-62
2021/12/26 11:13:46;;;;;;;15.65;9.88;;;;;;;-0.43;90.35;99331.77;1814387;77;21545;-62
2021/12/26 11:16:20;;;;;;;16.57;9.30;;;;;;;-0.40;90.52;99327.45;1811319;77;21070;-62
2021/12/26 11:18:56;;;;;;;18.32;10.15;;;;;;;-0.36;90.51;99322.73;1814336;77;20930;-63
2021/12/26 11:21:23;;;;;;;18.32;9.80;;;;;;;-0.30;90.66;99322.66;1810860;77;20916;-62
2021/12/26 11:23:50;;;;;;;27.32;12.75;;;;;;;-0.31;90.59;99324.82;1808737;77;20926;-62
2021/12/26 11:26:20;;;;;;;24.95;11.85;;;;;;;-0.35;90.66;99333.39;1802962;77;21038;-62
2021/12/26 11:28:51;;;;;;;31.05;14.33;;;;;;;-0.30;90.84;99326.52;1784492;77;22708;-63
2021/12/26 11:31:24;;;;;;;40.43;15.55;;;;;;;-0.29;90.78;99327.35;1767389;79;21893;-61
2021/12/26 11:34:00;;;;;;;17.80;9.63;;;;;;;-0.14;91.23;99323.37;1796646;77;21127;-63
2021/12/26 11:36:32;;;;;;;17.55;10.70;;;;;;;-0.09;90.92;99319.45;1815583;77;20981;-63
2021/12/26 11:39:09;;;;;;;18.25;9.25;;;;;;;-0.09;90.79;99328.44;1808373;77;20916;-63